Time;durP1;ratioP1;P1;durP2;ratioP2;P2;SDS_P1;SDS_P2;PMS_P1;PMS_P2;Temp;Humidity;BMP_temperature;BMP_pressure;BME280_temperature;BME280_humidity;BME280_pressure;Samples;Min_cycle;Max_cycle;Signal;HPM_P1;HPM_P2
2023/03/15 00:00:43;;;;;;;;;;;;;;;9.63;100.00;101015.38;4988437;28;19922;-50
2023/03/15 00:03:09;;;;;;;;;;;;;;;9.98;100.00;101012.13;4993837;28;19921;-51
2023/03/15 00:05:35;;;;;;;;;;;;;;;10.18;100.00;101015.84;4992354;28;19914;-50
2023/03/15 00:08:00;;;;;;;;;;;;;;;9.76;100.00;101012.84;4991660;28;19957;-50
2023/03/15 00:10:26;;;;;;;;;;;;;;;10.14;100.00;101011.88;4987617;28;19914;-53
2023/03/15 00:12:52;;;;;;;;;;;;;;;10.17;100.00;101016.03;4991507;28;19917;-54
2023/03/15 00:15:18;;;;;;;;;;;;;;;10.09;100.00;101019.63;4993769;28;19941;-53
2023/03/15 00:17:43;;;;;;;;;;;;;;;10.13;100.00;101020.91;4984469;28;19918;-54
2023/03/15 00:20:10;;;;;;;;;;;;;;;9.71;100.00;101014.44;4988629;28;19938;-51
2023/03/15 00:22:35;;;;;;;;;;;;;;;9.60;100.00;101016.56;4989221;28;19941;-54
2023/03/15 00:25:00;;;;;;;;;;;;;;;9.69;100.00;101017.28;4985969;28;19993;-53
2023/03/15 00:27:26;;;;;;;;;;;;;;;9.94;100.00;101016.19;4990385;28;19925;-53
2023/03/15 00:29:51;;;;;;;;;;;;;;;10.31;100.00;101022.34;4987277;28;19973;-54
2023/03/15 00:32:17;;;;;;;;;;;;;;;9.60;100.00;101019.22;4991179;28;19940;-51
2023/03/15 00:34:47;;;;;;;;;;;;;;;9.80;100.00;101024.00;4988581;28;20360;-50
2023/03/15 00:37:15;;;;;;;;;;;;;;;10.36;100.00;101022.59;4989648;28;19918;-50
2023/03/15 00:39:44;;;;;;;;;;;;;;;10.11;100.00;101014.91;5001891;28;19920;-54
2023/03/15 00:42:09;;;;;;;;;;;;;;;10.18;100.00;101010.50;4985497;28;19928;-49
2023/03/15 00:44:35;;;;;;;;;;;;;;;9.52;100.00;101008.66;4989378;28;19915;-51
2023/03/15 00:47:01;;;;;;;;;;;;;;;9.14;100.00;101019.38;4994809;28;19928;-52
2023/03/15 00:49:26;;;;;;;;;;;;;;;9.10;100.00;101028.75;4986328;28;19973;-52
2023/03/15 00:51:53;;;;;;;;;;;;;;;9.52;100.00;101027.34;4988705;28;19918;-53
2023/03/15 00:54:22;;;;;;;;;;;;;;;9.81;100.00;101025.66;4987189;28;19935;-53
2023/03/15 00:56:48;;;;;;;;;;;;;;;10.21;100.00;101035.19;4988673;28;19914;-54
2023/03/15 00:59:13;;;;;;;;;;;;;;;10.40;100.00;101034.63;5003628;28;19918;-54
2023/03/15 01:01:43;;;;;;;;;;;;;;;10.35;100.00;101034.31;4991663;28;19914;-54
2023/03/15 01:04:08;;;;;;;;;;;;;;;9.98;100.00;101031.63;4986889;28;20005;-53
2023/03/15 01:06:35;;;;;;;;;;;;;;;9.24;100.00;101046.66;5007379;28;19940;-54
2023/03/15 01:09:00;;;;;;;;;;;;;;;9.23;100.00;101046.81;4991144;28;19914;-54
2023/03/15 01:11:26;;;;;;;;;;;;;;;9.64;100.00;101042.88;4979896;28;19985;-53
2023/03/15 01:13:53;;;;;;;;;;;;;;;9.28;100.00;101050.59;5014324;28;19914;-51
2023/03/15 01:16:19;;;;;;;;;;;;;;;9.32;100.00;101057.22;4993398;28;19961;-54
2023/03/15 01:18:45;;;;;;;;;;;;;;;9.69;100.00;101049.34;4967254;28;19914;-54
2023/03/15 01:21:11;;;;;;;;;;;;;;;9.56;100.00;101066.00;4989302;28;19921;-52
2023/03/15 01:23:36;;;;;;;;;;;;;;;9.25;100.00;101066.16;4989946;28;19914;-50
2023/03/15 01:26:03;;;;;;;;;;;;;;;9.70;100.00;101058.19;5002689;28;19936;-50
2023/03/15 01:28:28;;;;;;;;;;;;;;;10.16;100.00;101059.81;4987677;28;19921;-51
2023/03/15 01:30:55;;;;;;;;;;;;;;;9.99;100.00;101068.00;4992938;28;19940;-51
2023/03/15 01:33:21;;;;;;;;;;;;;;;9.84;100.00;101065.34;4999410;28;19918;-55
2023/03/15 01:35:48;;;;;;;;;;;;;;;10.11;100.00;101073.72;5009488;28;19915;-53
2023/03/15 01:38:13;;;;;;;;;;;;;;;9.60;100.00;101072.63;4990121;28;19944;-53
2023/03/15 01:40:42;;;;;;;;;;;;;;;9.70;100.00;101077.72;4989307;28;19941;-54
2023/03/15 01:43:19;;;;;;;;;;;;;;;9.73;100.00;101081.88;5002542;28;19926;-51
2023/03/15 01:45:55;;;;;;;;;;;;;;;9.25;100.00;101091.00;4995332;28;19937;-54
2023/03/15 01:48:24;;;;;;;;;;;;;;;9.35;100.00;101092.56;5002953;28;19914;-51
2023/03/15 01:50:53;;;;;;;;;;;;;;;9.20;100.00;101095.22;4982364;28;19924;-52
2023/03/15 01:53:20;;;;;;;;;;;;;;;9.53;100.00;101086.88;4995433;28;19949;-49
2023/03/15 01:55:45;;;;;;;;;;;;;;;9.85;100.00;101090.25;4985493;28;19925;-54
2023/03/15 01:58:13;;;;;;;;;;;;;;;9.88;100.00;101092.53;5024590;28;19922;-54
2023/03/15 02:00:41;;;;;;;;;;;;;;;9.68;100.00;101093.09;5015903;28;19914;-54
2023/03/15 02:03:17;;;;;;;;;;;;;;;9.58;100.00;101090.69;4989685;28;19940;-53
2023/03/15 02:05:47;;;;;;;;;;;;;;;9.83;100.00;101097.63;5009600;28;19919;-53
2023/03/15 02:08:24;;;;;;;;;;;;;;;10.40;100.00;101096.13;5000443;28;19925;-54
2023/03/15 02:10:51;;;;;;;;;;;;;;;9.42;100.00;101104.19;5004138;28;19918;-51
2023/03/15 02:13:21;;;;;;;;;;;;;;;9.81;100.00;101107.66;5006040;28;19933;-53
2023/03/15 02:15:47;;;;;;;;;;;;;;;9.50;100.00;101103.28;4999781;28;19932;-55
2023/03/15 02:18:20;;;;;;;;;;;;;;;9.94;100.00;101105.16;5010019;28;19914;-53
2023/03/15 02:20:59;;;;;;;;;;;;;;;9.73;100.00;101116.59;4987756;28;19966;-55
2023/03/15 02:23:25;;;;;;;;;;;;;;;9.89;100.00;101112.91;4985583;28;19913;-54
2023/03/15 02:26:10;;;;;;;;;;;;;;;10.02;100.00;101107.72;5008705;28;19995;-53
2023/03/15 02:28:36;;;;;;;;;;;;;;;10.29;100.00;101108.09;4983836;28;19929;-50
2023/03/15 02:31:02;;;;;;;;;;;;;;;9.80;100.00;101125.50;4976144;28;20017;-53
2023/03/15 02:33:31;;;;;;;;;;;;;;;9.80;100.00;101106.81;4987009;28;19914;-49
2023/03/15 02:36:06;;;;;;;;;;;;;;;9.86;100.00;101116.75;4986852;28;19921;-53
2023/03/15 02:38:31;;;;;;;;;;;;;;;10.18;100.00;101117.41;4985345;28;19914;-56
2023/03/15 02:40:57;;;;;;;;;;;;;;;10.17;100.00;101122.94;4981425;28;19925;-53
2023/03/15 02:43:24;;;;;;;;;;;;;;;9.86;100.00;101130.13;4986627;28;19913;-53
2023/03/15 02:45:52;;;;;;;;;;;;;;;9.82;100.00;101138.69;4986058;28;19945;-52
2023/03/15 02:48:17;;;;;;;;;;;;;;;9.74;100.00;101142.28;4982783;28;19936;-53
2023/03/15 02:50:43;;;;;;;;;;;;;;;9.53;100.00;101150.97;4985380;28;19922;-52
2023/03/15 02:53:08;;;;;;;;;;;;;;;9.50;100.00;101149.50;4989522;28;19936;-55
2023/03/15 02:55:34;;;;;;;;;;;;;;;10.03;100.00;101146.81;4980634;28;19922;-52
2023/03/15 02:58:00;;;;;;;;;;;;;;;10.06;100.00;101161.63;4981183;28;19929;-53
2023/03/15 03:00:26;;;;;;;;;;;;;;;9.59;100.00;101155.59;4980271;28;19915;-52
2023/03/15 03:02:52;;;;;;;;;;;;;;;9.35;100.00;101162.81;4981460;28;19937;-53
2023/03/15 03:05:18;;;;;;;;;;;;;;;9.82;100.00;101168.91;4992490;28;19914;-53
2023/03/15 03:07:44;;;;;;;;;;;;;;;9.74;100.00;101177.00;4984406;28;19918;-54
2023/03/15 03:10:13;;;;;;;;;;;;;;;9.35;100.00;101178.00;4989942;28;19985;-54
2023/03/15 03:12:52;;;;;;;;;;;;;;;9.46;100.00;101177.59;4988801;28;19918;-53
2023/03/15 03:15:19;;;;;;;;;;;;;;;9.70;100.00;101183.72;4993409;28;19944;-51
2023/03/15 03:17:45;;;;;;;;;;;;;;;9.46;100.00;101183.72;4985584;28;19921;-52
2023/03/15 03:20:12;;;;;;;;;;;;;;;9.35;100.00;101186.00;4990754;28;19970;-55
2023/03/15 03:22:43;;;;;;;;;;;;;;;9.66;100.00;101187.75;5008581;28;19914;-50
2023/03/15 03:25:10;;;;;;;;;;;;;;;9.10;100.00;101186.19;4998920;28;19990;-50
2023/03/15 03:27:37;;;;;;;;;;;;;;;9.43;100.00;101196.59;4986427;28;19949;-49
2023/03/15 03:30:06;;;;;;;;;;;;;;;9.35;100.00;101196.69;4979902;28;19922;-50
2023/03/15 03:32:32;;;;;;;;;;;;;;;9.29;100.00;101207.06;4984826;28;19926;-50
2023/03/15 03:34:58;;;;;;;;;;;;;;;9.32;100.00;101209.38;4980911;28;20104;-51
2023/03/15 03:37:23;;;;;;;;;;;;;;;9.53;100.00;101212.38;4978417;28;19929;-53
2023/03/15 03:40:05;;;;;;;;;;;;;;;9.35;100.00;101215.38;4982443;28;19918;-52
2023/03/15 03:42:31;;;;;;;;;;;;;;;9.30;100.00;101227.41;4980709;28;19918;-51
2023/03/15 03:44:57;;;;;;;;;;;;;;;9.31;100.00;101222.88;4988080;28;19960;-54
2023/03/15 03:47:29;;;;;;;;;;;;;;;9.14;100.00;101222.16;4979566;28;19949;-52
2023/03/15 03:49:54;;;;;;;;;;;;;;;8.92;100.00;101232.63;4986135;28;19937;-48
2023/03/15 03:52:20;;;;;;;;;;;;;;;9.10;100.00;101236.88;4977066;28;19930;-52
2023/03/15 03:54:49;;;;;;;;;;;;;;;9.36;100.00;101243.72;4989155;28;19914;-49
2023/03/15 03:57:15;;;;;;;;;;;;;;;9.61;100.00;101239.84;4990294;28;19914;-53
2023/03/15 03:59:41;;;;;;;;;;;;;;;9.29;100.00;101241.75;4988599;28;19921;-51
2023/03/15 04:02:07;;;;;;;;;;;;;;;9.54;100.00;101238.91;4993860;28;19914;-51
2023/03/15 04:04:34;;;;;;;;;;;;;;;9.46;100.00;101247.00;4991153;28;19922;-50
2023/03/15 04:07:00;;;;;;;;;;;;;;;9.48;100.00;101252.97;5004898;28;19914;-52
2023/03/15 04:09:36;;;;;;;;;;;;;;;9.15;100.00;101254.03;4997257;28;19977;-51
2023/03/15 04:12:05;;;;;;;;;;;;;;;9.23;100.00;101255.81;4997234;28;20365;-53
2023/03/15 04:14:31;;;;;;;;;;;;;;;9.38;100.00;101260.38;4992620;28;19925;-53
2023/03/15 04:16:56;;;;;;;;;;;;;;;9.40;100.00;101266.38;4987312;28;19914;-54
2023/03/15 04:19:22;;;;;;;;;;;;;;;9.24;100.00;101275.31;4989040;28;19914;-52
2023/03/15 04:21:51;;;;;;;;;;;;;;;9.35;100.00;101263.41;4977173;28;19920;-51
2023/03/15 04:24:28;;;;;;;;;;;;;;;9.33;100.00;101264.41;4995819;28;19977;-51
2023/03/15 04:27:17;;;;;;;;;;;;;;;9.34;100.00;101270.56;4966204;28;20028;-51
2023/03/15 04:30:07;;;;;;;;;;;;;;;9.39;100.00;101273.56;4976940;28;19964;-52
2023/03/15 04:32:48;;;;;;;;;;;;;;;9.40;100.00;101285.06;4985415;28;19925;-52
2023/03/15 04:35:18;;;;;;;;;;;;;;;9.48;100.00;101287.69;4988986;28;19946;-53
2023/03/15 04:37:59;;;;;;;;;;;;;;;9.20;100.00;101296.16;5048412;28;19920;-52
2023/03/15 04:40:44;;;;;;;;;;;;;;;9.33;100.00;101292.94;5061323;28;19996;-50
2023/03/15 04:43:23;;;;;;;;;;;;;;;9.46;100.00;101295.88;5055361;28;19905;-54
2023/03/15 04:46:18;;;;;;;;;;;;;;;9.16;100.00;101297.53;5056418;28;19917;-54
2023/03/15 04:49:07;;;;;;;;;;;;;;;9.38;100.00;101303.94;5056417;28;19912;-53
2023/03/15 04:51:48;;;;;;;;;;;;;;;9.20;100.00;101312.19;5060819;28;19917;-53
2023/03/15 04:54:26;;;;;;;;;;;;;;;9.26;100.00;101308.84;5053809;28;19966;-54
2023/03/15 04:56:54;;;;;;;;;;;;;;;9.09;100.00;101312.59;5064408;28;20012;-52
2023/03/15 04:59:30;;;;;;;;;;;;;;;9.34;100.00;101318.63;5052325;28;19912;-50
2023/03/15 05:02:21;;;;;;;;;;;;;;;9.26;100.00;101316.84;5053069;28;20330;-52
2023/03/15 05:05:13;;;;;;;;;;;;;;;9.27;100.00;101326.50;5042338;28;19948;-50
2023/03/15 05:07:59;;;;;;;;;;;;;;;9.01;100.00;101322.31;5045379;28;19916;-51
2023/03/15 05:10:54;;;;;;;;;;;;;;;9.19;100.00;101329.19;5013403;28;20024;-50
2023/03/15 05:13:43;;;;;;;;;;;;;;;9.40;100.00;101333.09;5043374;28;19920;-50
2023/03/15 05:16:36;;;;;;;;;;;;;;;9.36;100.00;101337.13;5054880;28;19916;-53
2023/03/15 05:19:34;;;;;;;;;;;;;;;9.41;100.00;101338.28;5015286;28;20007;-54
2023/03/15 05:22:24;;;;;;;;;;;;;;;9.39;100.00;101348.31;5057893;28;19940;-48
2023/03/15 05:25:10;;;;;;;;;;;;;;;9.04;100.00;101339.78;5049223;28;19913;-50
2023/03/15 05:27:51;;;;;;;;;;;;;;;9.23;100.00;101335.88;5047839;28;19919;-51
2023/03/15 05:30:31;;;;;;;;;;;;;;;9.32;100.00;101345.50;5054828;28;19920;-53
2023/03/15 05:33:17;;;;;;;;;;;;;;;9.32;100.00;101352.66;5054876;28;19913;-53
2023/03/15 05:35:59;;;;;;;;;;;;;;;9.25;100.00;101347.22;5054355;28;20306;-51
2023/03/15 05:38:37;;;;;;;;;;;;;;;9.27;100.00;101357.69;4989868;28;20554;-49
2023/03/15 05:41:22;;;;;;;;;;;;;;;9.22;100.00;101362.72;4987263;28;19918;-55
2023/03/15 05:44:17;;;;;;;;;;;;;;;8.88;100.00;101372.69;4979279;28;19921;-52
2023/03/15 05:47:15;;;;;;;;;;;;;;;9.08;100.00;101374.97;4954736;28;19952;-53
2023/03/15 05:50:16;;;;;;;;;;;;;;;9.16;100.00;101380.25;4998500;28;19956;-54
2023/03/15 05:52:55;;;;;;;;;;;;;;;8.86;100.00;101380.03;4985435;28;19918;-54
2023/03/15 05:55:35;;;;;;;;;;;;;;;9.29;100.00;101385.88;4989251;28;19914;-55
2023/03/15 05:58:23;;;;;;;;;;;;;;;9.41;100.00;101386.34;4990965;28;19914;-51
2023/03/15 06:00:51;;;;;;;;;;;;;;;9.32;100.00;101396.22;4983140;28;19936;-54
2023/03/15 06:03:34;;;;;;;;;;;;;;;9.37;100.00;101403.72;4974786;28;19917;-56
2023/03/15 06:06:09;;;;;;;;;;;;;;;9.38;100.00;101409.88;4993011;28;19914;-53
2023/03/15 06:08:38;;;;;;;;;;;;;;;9.30;100.00;101405.38;4990946;28;19914;-51
2023/03/15 06:11:04;;;;;;;;;;;;;;;9.41;100.00;101413.03;4986138;28;19933;-53
2023/03/15 06:13:30;;;;;;;;;;;;;;;9.53;100.00;101424.16;4997042;28;19914;-51
2023/03/15 06:15:56;;;;;;;;;;;;;;;9.53;100.00;101415.31;4997635;28;19952;-53
2023/03/15 06:18:22;;;;;;;;;;;;;;;9.25;100.00;101424.63;4972933;28;19914;-53
2023/03/15 06:20:49;;;;;;;;;;;;;;;9.48;100.00;101421.19;4971060;28;19922;-54
2023/03/15 06:23:16;;;;;;;;;;;;;;;9.65;100.00;101426.44;5010027;28;19961;-52
2023/03/15 06:25:44;;;;;;;;;;;;;;;9.66;100.00;101431.59;4990144;28;20017;-57
2023/03/15 06:28:10;;;;;;;;;;;;;;;9.57;100.00;101446.84;4989628;28;19914;-56
2023/03/15 06:30:40;;;;;;;;;;;;;;;9.42;100.00;101456.56;4982006;28;20345;-52
2023/03/15 06:33:06;;;;;;;;;;;;;;;9.40;100.00;101455.91;5010352;28;19915;-53
2023/03/15 06:35:32;;;;;;;;;;;;;;;9.42;100.00;101459.22;4983101;28;19928;-56
2023/03/15 06:37:57;;;;;;;;;;;;;;;9.73;100.00;101472.63;5000130;28;19918;-54
2023/03/15 06:40:22;;;;;;;;;;;;;;;9.74;100.00;101478.81;5012010;28;19922;-55
2023/03/15 06:42:49;;;;;;;;;;;;;;;9.63;100.00;101481.84;4999462;28;19918;-54
2023/03/15 06:45:16;;;;;;;;;;;;;;;9.29;100.00;101481.97;5013336;28;20027;-53
2023/03/15 06:47:42;;;;;;;;;;;;;;;9.43;100.00;101477.75;4986599;28;19914;-52
2023/03/15 06:50:09;;;;;;;;;;;;;;;9.64;100.00;101488.84;4980714;28;19936;-54
2023/03/15 06:52:34;;;;;;;;;;;;;;;9.50;100.00;101490.41;4991210;28;19925;-49
2023/03/15 06:55:00;;;;;;;;;;;;;;;9.68;100.00;101501.69;4966665;28;19913;-53
2023/03/15 06:57:26;;;;;;;;;;;;;;;9.69;100.00;101497.22;4985000;28;20005;-53
2023/03/15 06:59:53;;;;;;;;;;;;;;;9.75;100.00;101508.00;4986278;28;19914;-54
2023/03/15 07:02:18;;;;;;;;;;;;;;;9.71;100.00;101511.22;4985732;28;19928;-54
2023/03/15 07:04:44;;;;;;;;;;;;;;;9.80;100.00;101512.84;4986215;28;19918;-53
2023/03/15 07:07:12;;;;;;;;;;;;;;;9.80;100.00;101517.34;4986170;28;19982;-52
2023/03/15 07:09:37;;;;;;;;;;;;;;;9.96;100.00;101519.13;4989688;28;19953;-53
2023/03/15 07:12:03;;;;;;;;;;;;;;;9.84;100.00;101519.50;4986505;28;19922;-53
2023/03/15 07:14:28;;;;;;;;;;;;;;;9.96;100.00;101532.47;4983336;28;19922;-52
2023/03/15 07:16:54;;;;;;;;;;;;;;;10.00;100.00;101531.94;4988058;28;19917;-52
2023/03/15 07:19:19;;;;;;;;;;;;;;;10.22;100.00;101539.38;4989349;28;19914;-48
2023/03/15 07:21:45;;;;;;;;;;;;;;;10.16;100.00;101544.41;4983745;28;19914;-53
2023/03/15 07:24:10;;;;;;;;;;;;;;;10.12;100.00;101550.28;4987977;28;19914;-54
2023/03/15 07:26:36;;;;;;;;;;;;;;;10.19;100.00;101551.22;4983581;28;19938;-51
2023/03/15 07:29:01;;;;;;;;;;;;;;;10.24;100.00;101564.06;4981534;28;19984;-49
2023/03/15 07:31:27;;;;;;;;;;;;;;;10.28;100.00;101562.72;4982593;28;20333;-49
2023/03/15 07:33:52;;;;;;;;;;;;;;;10.34;100.00;101567.34;4984470;28;19921;-54
2023/03/15 07:36:17;;;;;;;;;;;;;;;10.46;100.00;101574.00;4989544;28;19929;-53
2023/03/15 07:38:43;;;;;;;;;;;;;;;10.50;100.00;101579.84;4992179;28;19942;-52
2023/03/15 07:41:09;;;;;;;;;;;;;;;10.53;100.00;101574.13;4991363;28;19920;-53
2023/03/15 07:43:37;;;;;;;;;;;;;;;10.61;100.00;101578.59;5007434;28;19915;-54
2023/03/15 07:46:12;;;;;;;;;;;;;;;10.66;100.00;101570.88;4994983;28;19995;-52
2023/03/15 07:48:38;;;;;;;;;;;;;;;10.55;100.00;101579.28;4991690;28;19914;-52
2023/03/15 07:51:03;;;;;;;;;;;;;;;10.67;100.00;101583.25;4990442;28;19928;-49
2023/03/15 07:53:29;;;;;;;;;;;;;;;10.75;100.00;101588.53;4992551;28;19977;-50
2023/03/15 07:55:54;;;;;;;;;;;;;;;10.76;100.00;101587.50;4988143;28;19914;-52
2023/03/15 07:58:19;;;;;;;;;;;;;;;10.91;100.00;101592.09;4995306;28;19913;-49
2023/03/15 08:00:44;;;;;;;;;;;;;;;11.03;100.00;101590.66;4989638;28;19925;-53
2023/03/15 08:03:10;;;;;;;;;;;;;;;11.01;100.00;101587.31;5006834;28;19922;-50
2023/03/15 08:05:35;;;;;;;;;;;;;;;11.10;100.00;101603.34;4988894;28;19964;-54
2023/03/15 08:08:01;;;;;;;;;;;;;;;10.98;100.00;101606.41;4988894;28;19921;-49
2023/03/15 08:10:27;;;;;;;;;;;;;;;11.05;100.00;101612.72;4986547;28;19914;-52
2023/03/15 08:12:52;;;;;;;;;;;;;;;11.22;100.00;101615.25;4990488;28;19985;-51
2023/03/15 08:15:18;;;;;;;;;;;;;;;11.26;100.00;101626.44;4989727;28;19914;-50
2023/03/15 08:17:45;;;;;;;;;;;;;;;11.41;100.00;101631.84;4991664;28;19985;-54
2023/03/15 08:20:13;;;;;;;;;;;;;;;11.52;100.00;101636.75;4989223;28;19918;-53
2023/03/15 08:22:43;;;;;;;;;;;;;;;11.54;100.00;101640.09;4990973;28;19949;-55
2023/03/15 08:25:10;;;;;;;;;;;;;;;11.70;100.00;101632.91;4990387;28;19964;-50
2023/03/15 08:27:35;;;;;;;;;;;;;;;11.78;100.00;101638.19;4987210;28;19914;-51
2023/03/15 08:30:02;;;;;;;;;;;;;;;11.83;100.00;101642.97;4989134;28;19925;-52
2023/03/15 08:32:27;;;;;;;;;;;;;;;11.96;100.00;101645.00;4991957;28;19926;-52
2023/03/15 08:34:52;;;;;;;;;;;;;;;12.03;100.00;101643.31;4987749;28;19921;-51
2023/03/15 08:37:18;;;;;;;;;;;;;;;12.13;100.00;101648.38;4993133;28;19925;-54
2023/03/15 08:39:44;;;;;;;;;;;;;;;12.25;100.00;101648.75;4993370;28;19997;-50
2023/03/15 08:42:09;;;;;;;;;;;;;;;12.46;100.00;101661.38;4992781;28;19914;-50
2023/03/15 08:44:36;;;;;;;;;;;;;;;12.42;100.00;101662.78;4992344;28;19914;-51
2023/03/15 08:47:02;;;;;;;;;;;;;;;12.57;100.00;101658.22;4990440;28;19959;-49
2023/03/15 08:49:27;;;;;;;;;;;;;;;12.86;100.00;101669.03;4994819;28;19925;-52
2023/03/15 08:51:53;;;;;;;;;;;;;;;13.21;100.00;101663.81;4984204;28;19918;-50
2023/03/15 08:54:20;;;;;;;;;;;;;;;13.38;100.00;101671.59;4989721;28;19968;-48
2023/03/15 08:56:46;;;;;;;;;;;;;;;14.08;97.47;101670.88;5004913;28;19925;-52
2023/03/15 08:59:12;;;;;;;;;;;;;;;14.18;92.78;101677.56;4990479;28;19915;-52
2023/03/15 09:01:39;;;;;;;;;;;;;;;14.36;90.36;101683.44;4993567;28;19921;-48
2023/03/15 09:04:04;;;;;;;;;;;;;;;15.34;81.69;101691.19;4990953;28;19925;-50
2023/03/15 09:06:30;;;;;;;;;;;;;;;16.02;73.59;101693.84;4994037;28;19914;-49
2023/03/15 09:08:55;;;;;;;;;;;;;;;16.21;70.01;101697.53;4989390;28;19953;-51
2023/03/15 09:11:21;;;;;;;;;;;;;;;16.77;68.13;101697.94;4985206;28;19918;-51
2023/03/15 09:13:46;;;;;;;;;;;;;;;17.52;65.83;101707.22;4988550;28;19933;-51
2023/03/15 09:16:12;;;;;;;;;;;;;;;18.04;63.48;101706.16;4990796;28;19922;-51
2023/03/15 09:18:39;;;;;;;;;;;;;;;18.66;59.70;101707.09;4990931;28;19950;-51
2023/03/15 09:21:04;;;;;;;;;;;;;;;19.29;58.39;101705.78;4991112;28;19948;-52
2023/03/15 09:23:30;;;;;;;;;;;;;;;19.25;60.29;101696.47;4992151;28;19918;-51
2023/03/15 09:25:55;;;;;;;;;;;;;;;19.56;58.49;101705.34;4991552;28;19949;-50
2023/03/15 09:28:20;;;;;;;;;;;;;;;20.09;57.13;101697.34;4994303;28;19981;-53
2023/03/15 09:30:46;;;;;;;;;;;;;;;20.60;52.41;101697.56;4990746;28;19925;-49
2023/03/15 09:33:13;;;;;;;;;;;;;;;20.41;54.95;101701.50;4987601;28;19956;-49
2023/03/15 09:35:40;;;;;;;;;;;;;;;21.12;49.43;101706.69;4988753;28;19952;-50
2023/03/15 09:38:05;;;;;;;;;;;;;;;21.18;50.49;101718.47;4989309;28;19922;-51
2023/03/15 09:40:32;;;;;;;;;;;;;;;22.45;46.63;101714.34;4989526;28;20362;-50
2023/03/15 09:43:11;;;;;;;;;;;;;;;22.19;45.14;101721.38;4986216;28;19914;-48
2023/03/15 09:46:15;;;;;;;;;;;;;;;22.05;48.71;101718.19;4988292;28;19925;-53
2023/03/15 09:48:51;;;;;;;;;;;;;;;21.91;49.56;101724.00;5000232;28;19914;-51
2023/03/15 09:51:37;;;;;;;;;;;;;;;22.13;47.94;101725.91;5001586;28;19953;-49
2023/03/15 09:54:22;;;;;;;;;;;;;;;21.94;47.07;101719.94;4987014;28;19968;-52
2023/03/15 09:56:52;;;;;;;;;;;;;;;23.24;44.39;101724.16;4991485;28;19909;-48
2023/03/15 09:59:21;;;;;;;;;;;;;;;23.27;45.36;101723.66;4987695;28;19914;-52
2023/03/15 10:01:49;;;;;;;;;;;;;;;23.59;44.24;101729.09;4983624;28;19915;-51
2023/03/15 10:04:27;;;;;;;;;;;;;;;23.58;44.01;101721.16;4989812;28;19914;-54
2023/03/15 10:06:55;;;;;;;;;;;;;;;23.68;43.78;101726.72;4985807;28;19914;-53
2023/03/15 10:09:25;;;;;;;;;;;;;;;23.72;43.54;101729.72;4988415;28;19950;-54
2023/03/15 10:12:03;;;;;;;;;;;;;;;23.64;43.83;101722.84;4988239;28;19924;-49
2023/03/15 10:14:47;;;;;;;;;;;;;;;23.48;42.80;101724.63;4990545;28;19925;-52
2023/03/15 10:17:15;;;;;;;;;;;;;;;24.47;40.63;101726.88;4989662;28;19936;-52
2023/03/15 10:19:43;;;;;;;;;;;;;;;23.24;40.29;101726.88;4988757;28;19914;-55
2023/03/15 10:22:12;;;;;;;;;;;;;;;22.49;45.01;101720.16;4985466;28;19945;-52
2023/03/15 10:24:43;;;;;;;;;;;;;;;23.39;43.16;101728.94;4989782;28;19921;-50
2023/03/15 10:27:27;;;;;;;;;;;;;;;23.45;40.99;101736.91;4983383;28;20301;-56
2023/03/15 10:29:54;;;;;;;;;;;;;;;23.90;40.33;101734.75;4987640;28;19914;-53
2023/03/15 10:32:23;;;;;;;;;;;;;;;23.48;42.60;101730.94;4988762;28;19925;-52
2023/03/15 10:34:50;;;;;;;;;;;;;;;24.15;37.13;101743.41;4988280;28;19914;-54
2023/03/15 10:37:16;;;;;;;;;;;;;;;23.96;38.58;101729.31;4990653;28;19982;-50
2023/03/15 10:39:45;;;;;;;;;;;;;;;24.06;38.09;101735.69;4985794;28;19925;-54
2023/03/15 10:42:31;;;;;;;;;;;;;;;23.67;39.64;101746.06;4988867;28;19917;-53
2023/03/15 10:44:57;;;;;;;;;;;;;;;24.06;37.25;101749.34;4993370;28;19949;-53
2023/03/15 10:47:24;;;;;;;;;;;;;;;24.19;35.42;101753.50;4988066;28;19914;-54
2023/03/15 10:49:54;;;;;;;;;;;;;;;24.44;35.14;101757.44;4985048;28;19910;-54
2023/03/15 10:52:25;;;;;;;;;;;;;;;23.62;34.54;101753.16;4986289;28;19922;-52
2023/03/15 10:54:51;;;;;;;;;;;;;;;24.22;34.55;101762.25;4983174;28;19920;-53
2023/03/15 10:57:18;;;;;;;;;;;;;;;23.98;34.35;101757.19;4984581;28;19914;-51
2023/03/15 11:00:16;;;;;;;;;;;;;;;24.47;32.80;101767.88;4985312;28;19973;-55
2023/03/15 11:02:51;;;;;;;;;;;;;;;26.15;31.28;101775.94;5028954;28;19929;-54
2023/03/15 11:05:17;;;;;;;;;;;;;;;27.02;29.76;101772.03;4984480;28;19914;-57
2023/03/15 11:07:53;;;;;;;;;;;;;;;27.89;29.00;101779.81;4989266;28;19914;-54
2023/03/15 11:10:24;;;;;;;;;;;;;;;26.04;28.34;101786.09;4986046;28;19921;-55
2023/03/15 11:12:49;;;;;;;;;;;;;;;25.40;28.72;101774.66;4983550;28;19926;-55
2023/03/15 11:15:17;;;;;;;;;;;;;;;25.71;29.93;101789.16;4982339;28;19925;-54
2023/03/15 11:17:44;;;;;;;;;;;;;;;24.42;28.53;101792.44;4981351;28;19925;-54
2023/03/15 11:20:15;;;;;;;;;;;;;;;25.12;27.91;101791.31;4985133;28;19981;-53
2023/03/15 11:22:41;;;;;;;;;;;;;;;25.69;27.35;101793.28;4983628;28;19921;-53
2023/03/15 11:25:12;;;;;;;;;;;;;;;25.45;28.18;101793.81;4984907;28;19949;-54
2023/03/15 11:27:39;;;;;;;;;;;;;;;26.23;28.03;101789.09;4981668;28;20024;-55
2023/03/15 11:30:05;;;;;;;;;;;;;;;25.71;26.93;101796.56;4984866;28;19922;-52
2023/03/15 11:32:31;;;;;;;;;;;;;;;26.16;26.86;101800.38;4986093;28;19929;-54
2023/03/15 11:35:03;;;;;;;;;;;;;;;26.54;26.77;101799.16;4981550;28;19924;-52
2023/03/15 11:37:32;;;;;;;;;;;;;;;26.14;26.52;101799.78;4986013;28;19929;-54
2023/03/15 11:40:17;;;;;;;;;;;;;;;26.66;26.37;101791.41;4982922;28;19997;-52
2023/03/15 11:42:47;;;;;;;;;;;;;;;26.98;25.62;101792.88;4987526;28;19925;-54
2023/03/15 11:45:22;;;;;;;;;;;;;;;27.76;24.94;101790.38;4984120;28;19914;-52
2023/03/15 11:47:51;;;;;;;;;;;;;;;27.84;23.55;101782.63;4984694;28;19921;-53
2023/03/15 11:50:17;;;;;;;;;;;;;;;28.34;23.80;101785.94;4984436;28;19914;-54
2023/03/15 11:52:46;;;;;;;;;;;;;;;28.85;23.54;101791.09;4982904;28;19929;-57
2023/03/15 11:55:27;;;;;;;;;;;;;;;28.00;23.90;101786.03;4982392;28;19914;-56
2023/03/15 11:57:53;;;;;;;;;;;;;;;26.30;24.53;101786.88;4983648;28;19921;-57
2023/03/15 12:00:34;;;;;;;;;;;;;;;27.68;24.50;101781.94;4984013;28;19914;-53
2023/03/15 12:03:20;;;;;;;;;;;;;;;27.63;24.54;101772.63;4986647;28;19922;-55
2023/03/15 12:05:45;;;;;;;;;;;;;;;28.19;23.06;101778.69;4989813;28;19932;-55
2023/03/15 12:08:35;;;;;;;;;;;;;;;27.91;23.16;101781.19;4990060;28;19936;-54
2023/03/15 12:11:08;;;;;;;;;;;;;;;28.29;22.66;101785.16;4987625;28;19925;-53
2023/03/15 12:13:34;;;;;;;;;;;;;;;29.37;21.98;101779.28;4985241;28;19925;-57
2023/03/15 12:16:00;;;;;;;;;;;;;;;29.00;22.54;101788.09;4988036;28;19954;-56
2023/03/15 12:18:29;;;;;;;;;;;;;;;29.31;21.48;101793.13;4984268;28;19921;-56
2023/03/15 12:21:27;;;;;;;;;;;;;;;29.62;21.96;101787.13;4993200;28;20013;-57
2023/03/15 12:24:12;;;;;;;;;;;;;;;28.92;21.52;101797.03;5019213;28;19914;-56
2023/03/15 12:26:45;;;;;;;;;;;;;;;28.21;21.88;101794.88;4990113;28;19953;-56
2023/03/15 12:29:21;;;;;;;;;;;;;;;28.57;21.54;101791.69;4987824;28;19949;-57
2023/03/15 12:32:02;;;;;;;;;;;;;;;28.46;21.90;101790.19;4989324;28;19926;-58
2023/03/15 12:34:42;;;;;;;;;;;;;;;29.16;21.71;101790.63;4985079;28;19914;-56
2023/03/15 12:37:12;;;;;;;;;;;;;;;29.39;21.20;101794.38;4990138;28;19918;-56
2023/03/15 12:39:40;;;;;;;;;;;;;;;28.30;21.03;101792.31;4988519;28;19936;-58
2023/03/15 12:42:05;;;;;;;;;;;;;;;27.87;20.91;101793.03;4987831;28;19933;-56
2023/03/15 12:44:31;;;;;;;;;;;;;;;29.50;19.71;101784.03;4991745;28;19929;-57
2023/03/15 12:46:57;;;;;;;;;;;;;;;28.69;20.47;101785.75;4988488;28;19924;-56
2023/03/15 12:49:22;;;;;;;;;;;;;;;28.37;21.64;101780.97;4988855;28;19934;-57
2023/03/15 12:51:56;;;;;;;;;;;;;;;29.53;21.00;101780.69;4988678;28;19971;-55